Boca Raton, FL (33431)

2:59 AM EDT on May 06, 2015 (GMT -0400)
University Gardens | | Change Station
CLOSE
Current Station
Personal Weather Station
Location: Boca Raton, FL
Elevation: 39 ft
Nearby Weather Stations

Elev 39 ft 26.39 °N, 80.09 °W | Updated 9 minutes ago

Overcast
Overcast
69.3 °F
Feels Like 69.3 °F
N
5.4
Wind Variable Wind from North
Gusts 8.1 mph

Today
High -- | Low -- °F
--% Chance of Precip.
Yesterday
High -- | Low -- °F
Precip. -- in
6:39 AM 7:55 PM
Waning Gibbous, 95% visible
Pressure 29.99 in
Visibility 10.0 miles
Clouds Few 600 ft
Overcast 3700 ft
Dew Point 69 °F
Humidity 99%
Rainfall 0.09 in
Snow Depth Not available.
UV 0 out of 12
Pollen .60 out of 12
Air Quality Not available.
Flu Activity Local Activity
METAR KPMP 060653Z AUTO 33008KT 10SM FEW006 OVC037 21/20 A2999 RMK AO2 RAB31E53 SLP156 P0000 T02060200

More Conditions Fewer Conditions

Pressure 29.99 in
Visibility 10.0 miles
Clouds Few 600 ft
Overcast 3700 ft
Dew Point 69 °F
Humidity 99%
Rainfall 0.09 in
Snow Depth Not available.
UV 0 out of 12
Pollen .60 out of 12
Air Quality Not available.
Flu Activity Local Activity
METAR KPMP 060653Z AUTO 33008KT 10SM FEW006 OVC037 21/20 A2999 RMK AO2 RAB31E53 SLP156 P0000 T02060200

More Conditions Fewer Conditions

Nowcast | as of 2:21 am EDT on May 6, 2015

Through 4 am isolated to widely scattered showers embedded within a areas of mostly light rain will be impacting mainly portions of coastal and Metro Broward and Palm Beach counties and extreme northeast Miami Dade. Heaviest activity through the period will be moving across southeast portions of Broward County including areas from Hollywood Beach to Fort Lauderdale and adjacent areas as it moves slowly north and into the adjacent waters. Main concerns with the activity will be periods of heavy rain resulting in ponding of water on roadways and gusty winds in excess of 25 mph.

×

10-Day Weather Forecast

Almanac

Astronomy

May. 06, 2015 Rise Set
Actual Time
Civil Twilight
Nautical Twilight
Astronomical Twilight
Moon
Length of Visible Light
Length of Day
Tomorrow will be .
, % of the Moon is Illuminated

Today's Extremes

State Highs State Lows

Community

WunderPhotos

Upload Photos

1,818,850 photos uploaded!

WunderBlogs® & News

Nearby

Air Quality

  Air Quality AQ Index Pollutant
Not available.

Snow Depth

Station Depth Elevation

Earthquake Activity

City Distance Mag. Time & Date
Minimum magnitude displayed is 2.5.

Coastal Water Temperatures

Place Temperature

Stations

Nearby Weather Stations

Station Location Temp. Windchill Dew Point Humidity Wind Precip. Elev Updated Type